Hamilton, AL (35570)

6:13 PM CST on December 10, 2016 (GMT -0600)
Shiloh Community | | Change Station

Elev 591 ft 34.23 °N, 87.91 °W | Updated 27 seconds ago

Clear
Clear
34.7 °F
Feels Like 35 °F
N
1.0
Wind Variable Wind from NE

Today
High -- | Low -- °F
--% Chance of Precip.
Yesterday
High -- | Low -- °F
Precip. -- in
Pressure 30.51 in
Visibility 10.0 miles
Clouds Clear
Windchill 35 °F
Dew Point 17 °F
Humidity 50%
Rainfall 0.00 in
Snow Depth Not available.
6:47 AM 4:42 PM
Waxing Gibbous, 87% visible
METAR K1M4 102356Z AUTO 00000KT 10SM CLR 00/M06 A3043 RMK AO2 SLP330 T00001061 10072 20000 55006
Pressure 30.51 in
Visibility 10.0 miles
Clouds Clear
Windchill 35 °F
Dew Point 17 °F
Humidity 50%
Rainfall 0.00 in
Snow Depth Not available.
6:47 AM 4:42 PM
Waxing Gibbous, 87% visible
METAR K1M4 102356Z AUTO 00000KT 10SM CLR 00/M06 A3043 RMK AO2 SLP330 T00001061 10072 20000 55006

10-Day Weather Forecast

Almanac

Astronomy

Dec. 10, 2016 Rise Set
Actual Time
Civil Twilight
Nautical Twilight
Astronomical Twilight
Moon
Length of Visible Light
Length of Day
Tomorrow will be .
, % of the Moon is Illuminated

Today's Extremes

State Highs State Lows

Community

WunderPhotos

Upload Photos

1,956,680 photos uploaded!

WunderBlog® & News

Nearby

Air Quality

  Air Quality AQ Index Pollutant
Not available.

Snow Depth

Station Depth Elevation

Earthquake Activity

City Distance Mag. Time & Date
Minimum magnitude displayed is 2.5.

Coastal Water Temperatures

Place Temperature

Stations

Nearby Weather Stations

Station Location Temp. Windchill Dew Point Humidity Wind Precip. Elev Updated Type
                   

Watches & Warnings

There are currently no watches in effect.